Time;durP1;ratioP1;P1;durP2;ratioP2;P2;SDS_P1;SDS_P2;PMS_P1;PMS_P2;Temp;Humidity;BMP_temperature;BMP_pressure;BME280_temperature;BME280_humidity;BME280_pressure;Samples;Min_cycle;Max_cycle;Signal;HPM_P1;HPM_P2
2023/12/01 00:01:46;;;;;;;64.53;61.35;;;;;;;4.77;64.81;100296.91;5029036;28;20496;-75
2023/12/01 00:04:12;;;;;;;59.08;56.20;;;;;;;4.77;64.75;100298.78;5036289;28;20121;-73
2023/12/01 00:06:38;;;;;;;59.22;56.08;;;;;;;4.76;64.66;100297.13;5036518;28;20037;-73
2023/12/01 00:09:03;;;;;;;58.13;55.17;;;;;;;4.77;64.86;100296.09;5030220;28;20466;-74
2023/12/01 00:11:28;;;;;;;72.10;67.95;;;;;;;4.75;64.61;100300.84;5028832;28;20045;-73
2023/12/01 00:13:54;;;;;;;59.13;55.53;;;;;;;4.71;64.62;100300.47;5015686;28;20061;-73
2023/12/01 00:16:19;;;;;;;59.30;56.35;;;;;;;4.68;64.46;100303.53;5015256;28;20030;-73
2023/12/01 00:18:44;;;;;;;65.55;61.45;;;;;;;4.68;64.58;100308.91;5019617;28;20482;-73
2023/12/01 00:21:10;;;;;;;57.53;54.83;;;;;;;4.67;64.95;100306.47;5025466;28;20037;-75
2023/12/01 00:23:35;;;;;;;60.22;57.08;;;;;;;4.66;64.79;100313.66;5046449;28;20038;-74
2023/12/01 00:26:01;;;;;;;62.75;59.50;;;;;;;4.69;64.93;100307.06;5020652;28;20120;-74
2023/12/01 00:28:26;;;;;;;63.33;60.10;;;;;;;4.69;64.42;100313.22;5029984;28;20504;-74
2023/12/01 00:30:52;;;;;;;59.00;55.70;;;;;;;4.68;64.40;100306.22;5026859;28;20038;-73
2023/12/01 00:33:17;;;;;;;62.70;59.13;;;;;;;4.68;64.56;100314.25;5026814;28;21511;-74
2023/12/01 00:35:43;;;;;;;60.42;56.75;;;;;;;4.68;64.68;100310.75;5012546;28;20068;-73
2023/12/01 00:38:08;;;;;;;63.72;60.15;;;;;;;4.68;64.71;100314.25;5033122;28;20045;-74
2023/12/01 00:40:34;;;;;;;63.47;59.25;;;;;;;4.69;64.77;100315.09;5016595;28;20474;-74
2023/12/01 00:43:01;;;;;;;55.70;52.88;;;;;;;4.70;64.81;100319.41;5019170;28;20041;-73
2023/12/01 00:45:26;;;;;;;62.60;59.20;;;;;;;4.69;64.93;100318.59;5020589;28;20034;-74
2023/12/01 00:47:52;;;;;;;56.33;53.30;;;;;;;4.68;64.65;100316.91;5032402;28;20337;-73
2023/12/01 00:50:18;;;;;;;59.28;56.05;;;;;;;4.70;64.94;100319.41;5045224;28;20041;-75
2023/12/01 00:52:44;;;;;;;60.85;57.72;;;;;;;4.70;64.89;100325.56;4998144;28;20034;-74
2023/12/01 00:55:09;;;;;;;61.90;58.60;;;;;;;4.71;64.92;100329.91;5033044;28;20026;-74
2023/12/01 00:57:34;;;;;;;64.57;60.90;;;;;;;4.70;64.93;100338.94;5030209;28;20426;-74
2023/12/01 01:00:00;;;;;;;60.58;57.47;;;;;;;4.69;64.75;100334.63;5037281;28;20057;-74
2023/12/01 01:02:26;;;;;;;61.67;58.60;;;;;;;4.68;64.71;100335.66;5031694;28;20531;-73
2023/12/01 01:04:51;;;;;;;65.18;61.20;;;;;;;4.68;64.77;100342.88;5034020;28;20034;-75
2023/12/01 01:07:17;;;;;;;59.15;56.17;;;;;;;4.67;64.90;100350.06;5044155;28;20116;-75
2023/12/01 01:09:42;;;;;;;69.35;64.35;;;;;;;4.67;64.90;100341.22;5042451;28;20041;-74
2023/12/01 01:12:08;;;;;;;59.50;55.85;;;;;;;4.67;64.77;100342.03;5033872;28;20061;-73
2023/12/01 01:14:33;;;;;;;62.60;58.90;;;;;;;4.66;64.63;100340.41;5026510;28;20636;-74
2023/12/01 01:16:58;;;;;;;60.78;57.55;;;;;;;4.67;64.52;100344.72;5024377;28;20113;-73
2023/12/01 01:19:24;;;;;;;68.63;64.50;;;;;;;4.66;64.78;100345.78;5000701;28;20135;-74
2023/12/01 01:21:49;;;;;;;63.50;59.80;;;;;;;4.65;64.65;100349.47;5016686;28;20504;-75
2023/12/01 01:24:15;;;;;;;61.80;58.08;;;;;;;4.65;64.84;100346.78;5034080;28;20125;-76
2023/12/01 01:26:40;;;;;;;69.63;64.18;;;;;;;4.65;64.74;100343.28;5032119;28;20030;-74
2023/12/01 01:29:05;;;;;;;65.78;61.53;;;;;;;4.64;64.72;100349.69;5019920;28;20045;-74
2023/12/01 01:31:31;;;;;;;60.90;57.92;;;;;;;4.61;64.73;100358.97;5034389;28;20033;-76
2023/12/01 01:33:57;;;;;;;58.00;54.45;;;;;;;4.60;64.47;100353.81;5022890;28;20602;-73
2023/12/01 01:36:22;;;;;;;60.40;57.50;;;;;;;4.59;64.76;100355.69;5015207;28;20038;-73
2023/12/01 01:38:48;;;;;;;66.80;63.15;;;;;;;4.58;64.36;100351.34;5023202;28;20087;-74
2023/12/01 01:41:13;;;;;;;55.08;52.38;;;;;;;4.57;64.63;100357.75;5030541;28;20489;-74
2023/12/01 01:43:38;;;;;;;59.78;55.90;;;;;;;4.57;64.69;100360.41;5031712;28;20030;-74
2023/12/01 01:46:05;;;;;;;56.40;53.67;;;;;;;4.56;64.72;100361.44;5022081;28;20128;-74
2023/12/01 01:48:30;;;;;;;59.78;56.63;;;;;;;4.55;64.82;100357.13;5023636;28;20491;-74
2023/12/01 01:50:56;;;;;;;60.67;57.00;;;;;;;4.55;64.66;100360.63;5032627;28;20056;-73
2023/12/01 01:53:23;;;;;;;52.58;50.00;;;;;;;4.56;64.79;100372.13;5025201;28;20044;-73
2023/12/01 01:55:48;;;;;;;71.28;65.38;;;;;;;4.56;64.51;100369.44;5021777;28;20449;-73
2023/12/01 01:58:14;;;;;;;62.20;58.92;;;;;;;4.54;64.75;100369.69;5026454;28;20056;-74
2023/12/01 02:00:40;;;;;;;64.00;59.97;;;;;;;4.51;64.43;100378.13;5023732;28;20060;-74
2023/12/01 02:03:05;;;;;;;57.65;54.80;;;;;;;4.49;64.50;100368.69;5033910;28;20608;-73
2023/12/01 02:05:34;;;;;;;63.75;60.00;;;;;;;4.48;64.48;100378.53;5044992;28;20041;-73
2023/12/01 02:08:26;;;;;;;56.20;53.50;;;;;;;4.45;64.26;100380.81;5012602;28;20057;-73
2023/12/01 02:10:53;;;;;;;57.97;54.28;;;;;;;4.41;64.21;100376.91;5051300;28;20041;-74
2023/12/01 02:13:20;;;;;;;63.13;58.13;;;;;;;4.38;64.04;100388.84;5025923;28;20053;-76
2023/12/01 02:15:46;;;;;;;53.70;51.05;;;;;;;4.36;63.99;100388.28;5024475;28;20247;-75
2023/12/01 02:18:38;;;;;;;56.20;53.38;;;;;;;4.32;64.23;100387.03;5018671;28;20024;-74
2023/12/01 02:21:04;;;;;;;58.50;55.80;;;;;;;4.30;64.32;100384.56;5022564;28;20482;-74
2023/12/01 02:23:29;;;;;;;59.50;55.50;;;;;;;4.31;64.68;100383.56;5030565;28;20029;-75
2023/12/01 02:25:54;;;;;;;56.67;53.40;;;;;;;4.32;64.18;100381.69;5030404;28;20029;-74
2023/12/01 02:28:20;;;;;;;58.33;54.40;;;;;;;4.33;64.54;100383.31;5013756;28;20044;-77
2023/12/01 02:30:53;;;;;;;51.75;49.33;;;;;;;4.33;64.39;100380.66;5031535;28;20037;-72
2023/12/01 02:33:19;;;;;;;56.80;53.10;;;;;;;4.34;64.32;100390.31;5018685;28;20057;-74
2023/12/01 02:35:49;;;;;;;56.33;53.65;;;;;;;4.36;64.35;100392.78;5023897;28;20158;-73
2023/12/01 02:38:14;;;;;;;54.60;52.10;;;;;;;4.36;64.98;100392.78;5035129;28;20033;-74
2023/12/01 02:40:43;;;;;;;60.78;56.60;;;;;;;4.37;64.85;100392.56;5029380;28;20044;-73
2023/12/01 02:43:11;;;;;;;62.35;58.35;;;;;;;4.39;65.03;100389.69;5032963;28;20076;-74
2023/12/01 02:45:37;;;;;;;64.85;60.10;;;;;;;4.41;64.68;100387.63;5021569;28;20061;-75
2023/12/01 02:48:03;;;;;;;61.08;57.50;;;;;;;4.42;64.69;100389.28;5030214;28;20162;-74
2023/12/01 02:50:29;;;;;;;60.28;56.42;;;;;;;4.43;64.53;100382.88;5031600;28;20501;-74
2023/12/01 02:52:54;;;;;;;64.18;59.42;;;;;;;4.42;64.70;100376.72;5020703;28;20117;-74
2023/12/01 02:55:19;;;;;;;65.90;61.60;;;;;;;4.41;64.58;100387.63;5032049;28;20087;-75
2023/12/01 02:57:45;;;;;;;54.78;51.90;;;;;;;4.40;64.47;100386.00;5032459;28;20042;-75
2023/12/01 03:00:13;;;;;;;50.55;47.72;;;;;;;4.37;64.20;100383.75;5034008;28;20025;-74
2023/12/01 03:02:40;;;;;;;53.70;51.03;;;;;;;4.35;64.52;100397.31;5018554;28;20083;-74
2023/12/01 03:05:07;;;;;;;61.35;57.25;;;;;;;4.32;64.34;100382.50;5031311;28;20036;-75
2023/12/01 03:07:32;;;;;;;59.28;55.33;;;;;;;4.32;64.50;100385.19;5030137;28;20041;-74
2023/12/01 03:09:57;;;;;;;51.05;48.67;;;;;;;4.30;64.46;100386.41;5012503;28;20494;-73
2023/12/01 03:12:23;;;;;;;58.13;55.47;;;;;;;4.30;64.46;100392.59;4996458;28;20042;-74
2023/12/01 03:14:49;;;;;;;52.13;49.13;;;;;;;4.30;64.74;100391.78;5025623;28;20096;-73
2023/12/01 03:17:14;;;;;;;55.67;53.00;;;;;;;4.30;64.39;100392.59;5033782;28;20053;-74
2023/12/01 03:19:39;;;;;;;57.38;54.13;;;;;;;4.31;64.69;100388.09;5020020;28;20117;-75
2023/12/01 03:22:05;;;;;;;59.30;55.92;;;;;;;4.31;64.56;100393.44;5026393;28;20105;-72
2023/12/01 03:24:30;;;;;;;58.13;55.28;;;;;;;4.30;64.60;100387.25;5029620;28;20037;-74
2023/12/01 03:26:56;;;;;;;51.67;49.17;;;;;;;4.32;64.89;100401.22;5033215;28;20124;-74
2023/12/01 03:29:21;;;;;;;57.55;54.80;;;;;;;4.33;64.48;100384.16;5024433;28;20076;-73
2023/12/01 03:31:46;;;;;;;57.90;54.97;;;;;;;4.34;65.01;100393.81;5023123;28;20677;-75
2023/12/01 03:34:12;;;;;;;56.47;53.65;;;;;;;4.37;64.79;100400.59;5014207;28;20063;-74
2023/12/01 03:36:37;;;;;;;60.10;56.70;;;;;;;4.37;65.15;100397.94;5029831;28;20034;-75
2023/12/01 03:39:03;;;;;;;52.30;49.40;;;;;;;4.36;65.07;100396.28;5028362;28;20050;-75
2023/12/01 03:41:28;;;;;;;57.53;54.83;;;;;;;4.37;64.78;100400.59;5028469;28;20040;-75
2023/12/01 03:43:54;;;;;;;57.47;54.25;;;;;;;4.35;64.56;100405.34;5040089;28;20038;-74
2023/12/01 03:46:19;;;;;;;64.40;59.88;;;;;;;4.34;64.70;100407.19;5023452;28;20422;-74
2023/12/01 03:48:44;;;;;;;54.92;52.13;;;;;;;4.33;64.65;100407.38;5033832;28;20175;-73
2023/12/01 03:51:11;;;;;;;54.88;51.47;;;;;;;4.31;64.41;100418.31;5021691;28;20461;-73
2023/12/01 03:53:37;;;;;;;55.15;51.95;;;;;;;4.30;64.54;100419.31;5013967;28;20056;-74
2023/12/01 03:56:03;;;;;;;62.58;58.65;;;;;;;4.30;64.56;100413.97;5021352;28;20049;-74
2023/12/01 03:58:29;;;;;;;55.70;52.80;;;;;;;4.30;64.76;100415.84;5035820;28;20404;-77
2023/12/01 04:00:54;;;;;;;48.60;46.28;;;;;;;4.30;64.54;100413.16;5045754;28;20045;-74
2023/12/01 04:03:20;;;;;;;56.95;54.17;;;;;;;4.28;64.81;100413.38;5029765;28;20047;-74
2023/12/01 04:05:47;;;;;;;58.20;54.65;;;;;;;4.31;64.93;100412.16;5038002;28;20164;-75
2023/12/01 04:08:12;;;;;;;61.40;58.45;;;;;;;4.32;64.88;100416.44;5028612;28;20041;-72
2023/12/01 04:10:38;;;;;;;63.35;59.45;;;;;;;4.33;64.85;100421.59;5033835;28;20036;-73
2023/12/01 04:13:09;;;;;;;55.63;52.75;;;;;;;4.34;65.14;100423.22;5034801;28;20056;-74
2023/12/01 04:15:36;;;;;;;54.85;52.13;;;;;;;4.34;64.74;100419.75;5029483;28;20405;-77
2023/12/01 04:18:06;;;;;;;55.42;52.47;;;;;;;4.33;64.95;100426.94;5034896;28;20030;-74
2023/12/01 04:20:36;;;;;;;56.42;53.83;;;;;;;4.34;64.81;100430.44;5029473;28;20033;-76
2023/12/01 04:23:09;;;;;;;56.85;54.25;;;;;;;4.35;64.65;100426.72;5029707;28;20547;-74
2023/12/01 04:25:36;;;;;;;57.58;54.88;;;;;;;4.36;64.93;100433.72;5022989;28;20037;-73
2023/12/01 04:28:02;;;;;;;53.47;51.00;;;;;;;4.36;64.79;100431.06;5017020;28;20034;-75
2023/12/01 04:30:27;;;;;;;59.55;56.17;;;;;;;4.36;65.06;100439.09;5019860;28;20041;-74
2023/12/01 04:32:54;;;;;;;62.65;59.33;;;;;;;4.37;64.60;100443.38;5022141;28;20477;-74
2023/12/01 04:35:21;;;;;;;55.30;52.53;;;;;;;4.37;65.04;100446.06;5014003;28;20049;-74
2023/12/01 04:37:46;;;;;;;56.17;53.28;;;;;;;4.38;65.20;100446.88;5033928;28;20509;-74
2023/12/01 04:40:15;;;;;;;62.25;59.45;;;;;;;4.38;64.94;100453.03;5041096;28;20028;-74
2023/12/01 04:42:48;;;;;;;60.10;57.10;;;;;;;4.39;64.94;100448.53;5029073;28;20057;-74
2023/12/01 04:45:19;;;;;;;68.53;64.30;;;;;;;4.38;64.99;100450.38;5028322;28;20021;-73
2023/12/01 04:47:50;;;;;;;59.63;56.42;;;;;;;4.38;64.79;100457.56;5032690;28;20031;-73
2023/12/01 04:50:16;;;;;;;61.17;57.25;;;;;;;4.37;64.58;100450.59;5041131;28;20386;-73
2023/12/01 04:52:47;;;;;;;63.53;59.75;;;;;;;4.36;65.02;100459.63;5029763;28;20038;-74
2023/12/01 04:55:15;;;;;;;61.42;57.28;;;;;;;4.36;65.01;100452.44;5021393;28;20026;-74
2023/12/01 04:57:42;;;;;;;61.80;58.25;;;;;;;4.36;64.89;100459.63;5028567;28;20048;-74
2023/12/01 05:00:19;;;;;;;56.70;54.10;;;;;;;4.37;65.08;100464.78;5005721;28;20026;-74
2023/12/01 05:02:48;;;;;;;63.13;59.70;;;;;;;4.37;64.75;100463.97;5018733;28;20065;-74
2023/12/01 05:05:23;;;;;;;;;;;;;;;4.37;64.69;100474.66;5012838;28;20042;-73
2023/12/01 05:07:50;;;;;;;53.83;51.13;;;;;;;4.35;64.82;100480.19;5030255;28;19909;-73
2023/12/01 05:10:21;;;;;;;51.30;48.90;;;;;;;4.34;64.84;100484.75;5029230;28;20028;-73
2023/12/01 05:12:57;;;;;;;59.40;55.95;;;;;;;4.34;65.04;100490.09;5025854;28;20447;-74
2023/12/01 05:15:25;;;;;;;54.70;52.10;;;;;;;4.36;64.96;100486.38;5029364;28;20045;-74
2023/12/01 05:17:56;;;;;;;57.35;54.47;;;;;;;4.34;64.90;100487.41;5028550;28;20029;-74
2023/12/01 05:20:24;;;;;;;58.67;55.22;;;;;;;4.36;64.71;100494.38;5029847;28;20490;-74
2023/12/01 05:22:51;;;;;;;60.45;56.95;;;;;;;4.35;64.61;100493.56;5028432;28;20022;-73
2023/12/01 05:25:20;;;;;;;56.92;54.25;;;;;;;4.36;64.71;100502.41;5059803;28;20069;-73
2023/12/01 05:27:50;;;;;;;58.13;55.25;;;;;;;4.34;65.04;100494.63;5013418;28;20034;-74
2023/12/01 05:30:17;;;;;;;60.90;57.33;;;;;;;4.36;64.77;100505.09;5036993;28;20029;-73
2023/12/01 05:32:44;;;;;;;65.82;59.42;;;;;;;4.35;64.58;100501.59;5023944;28;20065;-75
2023/12/01 05:35:10;;;;;;;67.38;63.20;;;;;;;4.33;64.47;100501.81;5045294;28;20397;-73
2023/12/01 05:37:47;;;;;;;63.95;59.92;;;;;;;4.32;64.74;100502.84;5026265;28;20100;-73
2023/12/01 05:40:14;;;;;;;58.35;54.05;;;;;;;4.32;64.65;100500.16;5023579;28;20029;-73
2023/12/01 05:42:41;;;;;;;63.35;59.35;;;;;;;4.30;64.59;100507.56;5026732;28;20465;-75
2023/12/01 05:45:11;;;;;;;63.10;57.45;;;;;;;4.30;64.61;100512.91;5023776;28;20048;-74
2023/12/01 05:47:47;;;;;;;60.85;56.92;;;;;;;4.29;64.61;100518.47;5034621;28;20084;-74
2023/12/01 05:50:17;;;;;;;60.85;57.58;;;;;;;4.26;64.35;100525.06;5018756;28;20128;-75
2023/12/01 05:52:45;;;;;;;60.47;57.38;;;;;;;4.23;64.24;100525.44;5028113;28;20033;-74
2023/12/01 05:55:21;;;;;;;58.38;55.22;;;;;;;4.20;64.56;100525.88;5028991;28;20034;-73
2023/12/01 05:57:57;;;;;;;60.53;56.95;;;;;;;4.18;64.33;100517.22;5025248;28;20049;-74
2023/12/01 06:00:31;;;;;;;65.93;62.28;;;;;;;4.15;63.96;100514.97;5046391;28;20473;-73
2023/12/01 06:03:01;;;;;;;55.25;52.45;;;;;;;4.10;64.37;100523.59;5029449;28;20067;-77
2023/12/01 06:05:27;;;;;;;59.35;55.28;;;;;;;4.11;64.57;100524.44;5036144;28;20035;-74
2023/12/01 06:07:55;;;;;;;58.22;54.67;;;;;;;4.11;64.48;100527.94;5029989;28;20049;-75
2023/12/01 06:10:22;;;;;;;64.20;59.78;;;;;;;4.11;64.76;100535.97;5016784;28;20064;-75
2023/12/01 06:12:48;;;;;;;61.75;57.88;;;;;;;4.11;64.42;100537.81;5031889;28;20041;-75
2023/12/01 06:15:14;;;;;;;60.20;56.13;;;;;;;4.12;64.58;100526.91;5022260;28;20040;-73
2023/12/01 06:17:43;;;;;;;56.75;54.10;;;;;;;4.15;64.78;100535.53;5044195;28;20125;-74
2023/12/01 06:20:19;;;;;;;69.97;64.10;;;;;;;4.15;64.35;100533.69;5035795;28;20109;-73
2023/12/01 06:23:05;;;;;;;62.65;59.00;;;;;;;4.16;64.90;100538.03;5031145;28;20033;-74
2023/12/01 06:25:32;;;;;;;56.97;53.97;;;;;;;4.16;64.91;100534.50;5026318;28;20064;-73
2023/12/01 06:28:02;;;;;;;57.85;54.58;;;;;;;4.17;64.66;100542.34;5040271;28;20061;-73
2023/12/01 06:30:33;;;;;;;59.60;55.08;;;;;;;4.17;64.63;100553.03;5028556;28;20029;-74
2023/12/01 06:33:00;;;;;;;56.45;53.75;;;;;;;4.19;64.91;100547.47;5025712;28;20052;-74
2023/12/01 06:35:26;;;;;;;55.65;52.85;;;;;;;4.19;64.82;100545.63;5029814;28;20067;-74
2023/12/01 06:37:51;;;;;;;54.63;51.55;;;;;;;4.20;64.85;100541.91;5048303;28;20036;-73
2023/12/01 06:40:18;;;;;;;58.75;55.25;;;;;;;4.21;64.89;100542.72;5031599;28;20029;-73
2023/12/01 06:42:48;;;;;;;60.55;56.35;;;;;;;4.23;64.88;100543.34;5029789;28;20379;-75
2023/12/01 06:45:16;;;;;;;60.58;56.03;;;;;;;4.21;64.68;100543.56;5021495;28;20120;-73
2023/12/01 06:47:45;;;;;;;75.82;69.90;;;;;;;4.20;64.47;100544.59;5024312;28;20067;-73
2023/12/01 06:50:14;;;;;;;57.83;54.35;;;;;;;4.17;64.48;100544.19;5034862;28;20045;-74
2023/12/01 06:52:40;;;;;;;57.38;54.45;;;;;;;4.15;64.57;100552.41;5029390;28;20046;-74
2023/12/01 06:55:09;;;;;;;59.47;55.88;;;;;;;4.15;64.41;100547.06;5029281;28;20116;-73
2023/12/01 06:57:40;;;;;;;63.58;60.03;;;;;;;4.14;64.46;100556.13;5020559;28;20038;-73
2023/12/01 07:00:21;;;;;;;61.65;57.60;;;;;;;4.14;64.67;100553.44;5032564;28;20486;-74
2023/12/01 07:02:48;;;;;;;54.92;52.00;;;;;;;4.15;64.70;100557.75;5029382;28;20057;-75
2023/12/01 07:05:19;;;;;;;61.65;57.28;;;;;;;4.16;64.52;100563.91;5014285;28;20502;-74
2023/12/01 07:07:45;;;;;;;60.78;57.28;;;;;;;4.15;64.66;100565.75;5025511;28;20033;-72
2023/12/01 07:10:10;;;;;;;60.35;57.20;;;;;;;4.14;64.33;100566.81;5016391;28;20116;-73
2023/12/01 07:12:36;;;;;;;60.10;56.55;;;;;;;4.11;64.35;100575.25;5023724;28;20037;-74
2023/12/01 07:15:02;;;;;;;55.60;52.38;;;;;;;4.11;64.56;100573.38;5035679;28;20032;-73
2023/12/01 07:17:29;;;;;;;55.88;53.05;;;;;;;4.11;64.57;100580.59;5034540;28;20029;-71
2023/12/01 07:19:54;;;;;;;59.80;56.65;;;;;;;4.10;64.66;100586.94;5028429;28;20056;-71
2023/12/01 07:22:22;;;;;;;67.65;62.58;;;;;;;4.09;64.39;100590.66;5027351;28;20509;-73
2023/12/01 07:24:48;;;;;;;59.65;55.95;;;;;;;4.07;64.29;100580.16;5014816;28;20061;-75
2023/12/01 07:27:14;;;;;;;62.22;56.97;;;;;;;4.08;64.26;100587.16;5012025;28;20026;-73
2023/12/01 07:29:40;;;;;;;57.95;54.75;;;;;;;4.08;64.41;100580.97;5019587;28;20041;-73
2023/12/01 07:32:06;;;;;;;78.95;72.05;;;;;;;4.10;64.78;100586.94;5024299;28;20423;-72
2023/12/01 07:34:31;;;;;;;53.00;50.10;;;;;;;4.09;64.48;100583.44;5018895;28;20148;-74
2023/12/01 07:36:56;;;;;;;56.67;53.47;;;;;;;4.11;64.53;100583.25;5021888;28;20045;-73
2023/12/01 07:39:23;;;;;;;63.63;60.10;;;;;;;4.11;64.71;100585.94;5046752;28;20362;-74
2023/12/01 07:41:51;;;;;;;58.17;54.75;;;;;;;4.12;64.43;100580.38;5025186;28;20056;-70
2023/12/01 07:44:17;;;;;;;56.92;54.03;;;;;;;4.12;64.58;100580.38;5025843;28;20045;-72
2023/12/01 07:46:43;;;;;;;52.08;49.47;;;;;;;4.13;64.63;100586.53;5025998;28;20152;-72
2023/12/01 07:49:11;;;;;;;58.00;54.90;;;;;;;4.12;64.84;100580.38;5011644;28;20040;-72
2023/12/01 07:51:37;;;;;;;61.92;57.72;;;;;;;4.15;64.86;100579.13;5011111;28;20038;-74
2023/12/01 07:54:03;;;;;;;59.03;54.47;;;;;;;4.17;64.65;100582.44;5031272;28;20033;-71
2023/12/01 07:56:28;;;;;;;64.63;59.88;;;;;;;4.18;64.92;100584.06;5022365;28;20030;-73
2023/12/01 07:58:54;;;;;;;65.28;60.17;;;;;;;4.17;64.76;100582.44;5029310;28;20139;-72
2023/12/01 08:01:19;;;;;;;62.20;58.42;;;;;;;4.18;64.52;100580.56;5028484;28;20053;-72
2023/12/01 08:03:46;;;;;;;52.42;49.75;;;;;;;4.18;64.56;100578.72;5026428;28;20037;-73
2023/12/01 08:06:13;;;;;;;59.38;56.40;;;;;;;4.18;64.45;100583.25;5027674;28;20230;-73
2023/12/01 08:08:39;;;;;;;56.95;53.97;;;;;;;4.17;64.52;100579.75;5024275;28;20053;-74
2023/12/01 08:11:04;;;;;;;72.60;67.75;;;;;;;4.16;64.43;100575.44;4991633;28;20513;-74
2023/12/01 08:13:30;;;;;;;59.13;55.58;;;;;;;4.18;64.50;100584.06;5000158;28;20065;-73
2023/12/01 08:15:56;;;;;;;58.38;54.05;;;;;;;4.18;64.57;100577.91;5013458;28;20034;-73
2023/12/01 08:18:21;;;;;;;55.20;51.67;;;;;;;4.18;64.49;100586.75;5025704;28;20034;-72
2023/12/01 08:20:47;;;;;;;59.75;56.17;;;;;;;4.19;64.27;100584.91;5027026;28;20048;-72
2023/12/01 08:23:13;;;;;;;58.90;54.70;;;;;;;4.20;64.46;100595.38;5028303;28;20029;-73
2023/12/01 08:25:38;;;;;;;60.40;57.35;;;;;;;4.19;64.61;100596.41;5010900;28;20508;-73
2023/12/01 08:28:04;;;;;;;59.05;55.67;;;;;;;4.19;64.63;100598.28;5007819;28;20042;-75
2023/12/01 08:30:29;;;;;;;50.67;47.63;;;;;;;4.19;64.64;100591.06;5013027;28;20041;-74
2023/12/01 08:32:55;;;;;;;61.55;57.65;;;;;;;4.19;64.76;100599.09;5032519;28;20069;-75
2023/12/01 08:35:21;;;;;;;58.83;55.17;;;;;;;4.20;64.55;100607.94;5011174;28;20061;-72
2023/12/01 08:37:47;;;;;;;57.72;54.75;;;;;;;4.21;64.87;100598.88;5026493;28;20033;-73
2023/12/01 08:40:12;;;;;;;56.58;53.45;;;;;;;4.21;64.59;100605.06;5024500;28;20099;-73
2023/12/01 08:42:40;;;;;;;56.85;53.97;;;;;;;4.22;64.75;100605.88;5024479;28;20544;-74
2023/12/01 08:45:07;;;;;;;61.45;58.10;;;;;;;4.22;64.83;100609.38;5011070;28;20107;-72
2023/12/01 08:47:32;;;;;;;59.05;54.72;;;;;;;4.24;64.73;100612.66;5028766;28;20065;-72
2023/12/01 08:49:58;;;;;;;59.63;56.60;;;;;;;4.25;64.65;100613.50;5024625;28;20072;-72
2023/12/01 08:52:23;;;;;;;55.08;52.53;;;;;;;4.26;64.66;100612.47;5020476;28;20033;-72
2023/12/01 08:54:48;;;;;;;56.20;53.50;;;;;;;4.26;64.65;100615.97;5010418;28;20037;-72
2023/12/01 08:57:14;;;;;;;58.60;55.25;;;;;;;4.26;64.66;100615.97;5010101;28;20544;-75
2023/12/01 08:59:39;;;;;;;55.45;52.70;;;;;;;4.26;64.75;100613.28;5029285;28;20044;-72
2023/12/01 09:02:05;;;;;;;53.63;50.97;;;;;;;4.27;64.57;100614.13;5029572;28;20095;-72
2023/12/01 09:04:31;;;;;;;58.97;56.03;;;;;;;4.26;64.80;100615.16;5014279;28;20483;-72
2023/12/01 09:06:56;;;;;;;58.92;55.40;;;;;;;4.26;64.72;100613.28;5011308;28;20054;-75
2023/12/01 09:09:22;;;;;;;59.35;56.42;;;;;;;4.28;64.76;100619.28;4999937;28;20144;-73
2023/12/01 09:11:47;;;;;;;56.10;53.30;;;;;;;4.27;64.53;100617.59;5031950;28;20637;-72
2023/12/01 09:14:12;;;;;;;60.40;56.85;;;;;;;4.28;64.68;100616.59;5021262;28;20033;-72
2023/12/01 09:16:38;;;;;;;63.72;57.70;;;;;;;4.27;64.65;100630.97;5034177;28;20036;-73
2023/12/01 09:19:03;;;;;;;58.58;55.65;;;;;;;4.27;64.45;100625.63;5019880;28;20073;-73
2023/12/01 09:21:29;;;;;;;62.42;59.20;;;;;;;4.28;64.79;100635.31;5015219;28;20030;-72
2023/12/01 09:23:54;;;;;;;54.38;51.70;;;;;;;4.27;64.78;100632.84;5043028;28;20456;-71
2023/12/01 09:26:20;;;;;;;62.88;57.95;;;;;;;4.26;64.54;100637.38;5038710;28;20037;-72
2023/12/01 09:28:48;;;;;;;59.00;56.03;;;;;;;4.25;64.46;100638.38;5033115;28;20042;-72
2023/12/01 09:31:13;;;;;;;65.00;61.03;;;;;;;4.24;64.27;100634.06;5016251;28;20038;-72
2023/12/01 09:33:39;;;;;;;53.60;50.92;;;;;;;4.23;64.50;100637.75;5017428;28;20033;-72
2023/12/01 09:36:05;;;;;;;63.50;59.00;;;;;;;4.23;64.31;100632.41;5032811;28;20036;-72
2023/12/01 09:38:31;;;;;;;66.65;61.67;;;;;;;4.23;64.35;100642.28;5032780;28;20045;-73
2023/12/01 09:40:57;;;;;;;62.95;58.75;;;;;;;4.21;64.22;100641.66;5040128;28;20082;-73
2023/12/01 09:43:23;;;;;;;64.82;59.97;;;;;;;4.20;64.16;100653.38;5024609;28;20069;-72
2023/12/01 09:45:50;;;;;;;59.83;54.58;;;;;;;4.19;64.05;100657.91;5032122;28;20065;-73
2023/12/01 09:48:19;;;;;;;63.80;59.13;;;;;;;4.16;64.04;100655.66;5024944;28;20049;-73
2023/12/01 09:50:44;;;;;;;53.47;50.17;;;;;;;4.15;64.45;100650.50;5021535;28;20088;-72
2023/12/01 09:53:11;;;;;;;58.25;55.05;;;;;;;4.12;64.12;100659.75;5031371;28;20026;-75
2023/12/01 09:55:36;;;;;;;56.08;53.15;;;;;;;4.12;64.38;100665.09;5032465;28;20065;-73
2023/12/01 09:58:02;;;;;;;58.00;54.72;;;;;;;4.12;64.23;100662.41;5032347;28;20036;-78
2023/12/01 10:00:27;;;;;;;54.53;51.65;;;;;;;4.11;64.04;100658.91;5029313;28;20437;-74
2023/12/01 10:02:52;;;;;;;51.53;48.92;;;;;;;4.11;64.26;100661.59;5028825;28;20057;-74
2023/12/01 10:05:18;;;;;;;60.08;55.78;;;;;;;4.11;64.38;100663.44;5020136;28;20038;-73
2023/12/01 10:07:52;;;;;;;53.65;50.55;;;;;;;4.10;64.17;100661.78;5030335;28;20108;-74
2023/12/01 10:10:23;;;;;;;50.00;47.30;;;;;;;4.10;64.36;100662.59;5030465;28;20025;-78
2023/12/01 10:12:57;;;;;;;50.95;47.72;;;;;;;4.10;64.16;100659.13;5033337;28;20034;-73
2023/12/01 10:15:24;;;;;;;51.90;49.38;;;;;;;4.10;64.20;100667.13;5015487;28;20548;-76
2023/12/01 10:17:51;;;;;;;55.72;53.03;;;;;;;4.10;64.35;100656.44;5019440;28;20049;-74
2023/12/01 10:20:20;;;;;;;55.53;52.38;;;;;;;4.12;64.00;100665.91;5013604;28;20545;-74
2023/12/01 10:22:46;;;;;;;59.05;56.00;;;;;;;4.15;64.18;100658.50;5030203;28;20110;-74
2023/12/01 10:25:12;;;;;;;57.28;53.97;;;;;;;4.14;64.41;100657.69;5025142;28;20117;-75
2023/12/01 10:27:39;;;;;;;60.42;56.50;;;;;;;4.14;64.34;100651.53;5006548;28;20042;-75
2023/12/01 10:30:16;;;;;;;52.83;49.75;;;;;;;4.16;64.33;100652.13;5040545;28;20384;-78
2023/12/01 10:32:42;;;;;;;54.20;50.55;;;;;;;4.16;64.26;100654.81;5016592;28;20057;-81
2023/12/01 10:35:07;;;;;;;57.80;54.38;;;;;;;4.15;64.06;100653.97;5019399;28;20057;-74
2023/12/01 10:37:34;;;;;;;55.40;51.22;;;;;;;4.15;64.19;100655.84;5016882;28;20404;-73
2023/12/01 10:40:05;;;;;;;50.63;46.67;;;;;;;4.16;64.15;100661.00;5029464;28;20029;-74
2023/12/01 10:42:32;;;;;;;54.90;52.00;;;;;;;4.18;64.25;100656.25;5019782;28;20517;-75
2023/12/01 10:45:00;;;;;;;57.55;54.10;;;;;;;4.17;64.13;100657.28;5028250;28;20083;-77
2023/12/01 10:47:27;;;;;;;55.83;52.90;;;;;;;4.16;64.43;100666.34;5025091;28;20221;-75
2023/12/01 10:49:55;;;;;;;56.22;52.70;;;;;;;4.16;64.16;100655.66;5020531;28;20471;-77
2023/12/01 10:52:20;;;;;;;58.42;55.53;;;;;;;4.18;64.17;100653.56;5016980;28;20159;-76
2023/12/01 10:54:46;;;;;;;55.25;52.03;;;;;;;4.18;63.99;100644.72;5011926;28;20034;-74
2023/12/01 10:57:17;;;;;;;66.97;62.33;;;;;;;4.19;64.10;100641.88;5013716;28;20388;-76
2023/12/01 10:59:54;;;;;;;55.88;52.35;;;;;;;4.18;64.05;100648.22;5011205;28;20032;-74
2023/12/01 11:02:21;;;;;;;55.85;52.50;;;;;;;4.19;64.26;100657.91;5028345;28;20520;-79
2023/12/01 11:04:47;;;;;;;51.75;49.13;;;;;;;4.19;64.18;100655.25;5031201;28;20036;-73
2023/12/01 11:07:15;;;;;;;62.83;58.53;;;;;;;4.19;64.79;100649.88;5025483;28;20535;-74
2023/12/01 11:09:42;;;;;;;59.45;55.92;;;;;;;4.20;63.85;100646.19;5023619;28;20033;-73
2023/12/01 11:12:16;;;;;;;53.30;50.53;;;;;;;4.19;64.00;100641.88;5029533;28;20132;-76
2023/12/01 11:14:45;;;;;;;47.65;45.13;;;;;;;4.20;63.93;100640.00;5026251;28;20030;-73
2023/12/01 11:17:10;;;;;;;55.17;51.70;;;;;;;4.19;64.03;100641.06;5030561;28;20433;-77